Morgan Park, Minnesota
Current Conditions -  °F | °C
As of 10:55 PM on Saturday 25 Oct 2014 (Local Time) from KSUW Reporting Station
Clear Clear  
Wind Chill: 40°   Ceiling: Unl
Heat Index: 44°   Visibility: 10mi
Dew Point: 27°   Wind: 7mph
Humidity: 51%   Direction: 270°W
Pressure: 29.99"   Gusts: NA
Location:  46.6753°N, 92.2408°W
Report Text: KSUW 260355Z AUTO 27006KT 10SM CLR 07/M03 A2999 RMK AO2 T00681026
Loading
Personal Weather Stations






























Interactive Weather Map
Tropical Storm Tracking
New forecast layout! Learn more

10-Day Weather Forecast

Advertisements
Track Severe Weather on mobile